D/T METAR WX W/DIR W/SPE G/SPE TEMP DEWP
25/05/20 16:50 EGPB 251550Z AUTO 18012KT 9999 NCD 10/08 Q1026 S (180°) 13.8mph 10°C 8°C
25/05/20 16:20 EGPB 251520Z AUTO 18011KT 9999 NCD 11/08 Q1026 S (180°) 12.7mph 11°C 8°C
25/05/20 15:50 EGPB 251450Z 18011KT CAVOK 11/08 Q1026 S (180°) 12.7mph 11°C 8°C
25/05/20 15:20 EGPB 251420Z 18013KT CAVOK 11/08 Q1026 NOSIG S (180°) 15.0mph 11°C 8°C
25/05/20 14:50 EGPB 251350Z 18011KT CAVOK 11/08 Q1027 NOSIG S (180°) 12.7mph 11°C 8°C
25/05/20 14:20 EGPB 251320Z 18010KT CAVOK 11/08 Q1027 NOSIG S (180°) 11.5mph 11°C 8°C
25/05/20 13:50 EGPB 251250Z 18009KT CAVOK 11/08 Q1027 NOSIG S (180°) 10.4mph 11°C 8°C
25/05/20 13:20 EGPB 251220Z 19011KT CAVOK 12/08 Q1027 NOSIG S (190°) 12.7mph 12°C 8°C
25/05/20 12:50 EGPB 251150Z 20015KT CAVOK 12/09 Q1027 NOSIG SSW (200°) 17.3mph 12°C 9°C
25/05/20 12:20 EGPB 251120Z 20013KT CAVOK 12/09 Q1027 NOSIG SSW (200°) 15.0mph 12°C 9°C
25/05/20 11:50 EGPB 251050Z 19013KT CAVOK 12/09 Q1027 NOSIG S (190°) 15.0mph 12°C 9°C
25/05/20 11:20 EGPB 251020Z 19012KT 9999 FEW045 13/09 Q1027 NOSIG S (190°) 13.8mph 13°C 9°C
25/05/20 10:50 EGPB 250950Z 20013KT 9999 FEW045 12/09 Q1027 SSW (200°) 15.0mph 12°C 9°C
25/05/20 10:20 EGPB 250920Z 18012KT 9999 FEW045 12/08 Q1028 NOSIG S (180°) 13.8mph 12°C 8°C
25/05/20 09:50 EGPB 250850Z 21013KT CAVOK 11/08 Q1028 NOSIG SSW (210°) 15.0mph 11°C 8°C
25/05/20 09:20 EGPB 250820Z 21013KT CAVOK 11/08 Q1028 SSW (210°) 15.0mph 11°C 8°C
25/05/20 08:50 EGPB 250750Z 20013KT CAVOK 11/08 Q1027 SSW (200°) 15.0mph 11°C 8°C
25/05/20 08:20 EGPB 250720Z 20011KT CAVOK 11/08 Q1028 NOSIG SSW (200°) 12.7mph 11°C 8°C
25/05/20 07:50 EGPB 250650Z 19008KT CAVOK 11/09 Q1028 NOSIG S (190°) 9.2mph 11°C 9°C
25/05/20 07:20 EGPB 250620Z 21011KT 9999 FEW018 10/08 Q1028 NOSIG SSW (210°) 12.7mph 10°C 8°C
25/05/20 06:50 EGPB 250550Z 21013KT 9999 FEW018 10/08 Q1028 NOSIG SSW (210°) 15.0mph 10°C 8°C
25/05/20 06:20 EGPB 250520Z 19010KT 9999 FEW015 OVC031 10/08 Q1028 NOSIG S (190°) 11.5mph 10°C 8°C
25/05/20 05:50 EGPB 250450Z AUTO 21010KT 9999 FEW015/// OVC030/// 10/08 Q1027 SSW (210°) 11.5mph 10°C 8°C
25/05/20 05:20 EGPB 250420Z AUTO 21009KT 9999 OVC028/// 09/08 Q1027 SSW (210°) 10.4mph 9°C 8°C
25/05/20 04:50 EGPB 250350Z AUTO 22009KT 9999 OVC028/// 09/08 Q1027 SW (220°) 10.4mph 9°C 8°C
25/05/20 04:20 EGPB 250320Z AUTO 24011KT 9000 OVC029/// 09/08 Q1027 WSW (240°) 12.7mph 9°C 8°C
25/05/20 03:50 EGPB 250250Z AUTO 24010KT 7000 OVC030/// 09/08 Q1027 WSW (240°) 11.5mph 9°C 8°C
25/05/20 03:20 EGPB 250220Z AUTO 24009KT 6000 OVC028/// 09/08 Q1027 WSW (240°) 10.4mph 9°C 8°C
25/05/20 02:50 EGPB 250150Z AUTO 26009KT 7000 OVC033/// 09/08 Q1027 W (260°) 10.4mph 9°C 8°C
25/05/20 02:20 EGPB 250120Z AUTO 26009KT 8000 OVC034/// 09/08 Q1026 W (260°) 10.4mph 9°C 8°C
25/05/20 01:50 EGPB 250050Z AUTO 25012KT 8000 OVC030/// 09/08 Q1026 WSW (250°) 13.8mph 9°C 8°C
25/05/20 01:20 EGPB 250020Z AUTO 25011KT 8000 OVC028/// 09/08 Q1026 WSW (250°) 12.7mph 9°C 8°C
25/05/20 00:50 EGPB 242350Z AUTO 26012KT 9999 OVC028/// 09/08 Q1026 W (260°) 13.8mph 9°C 8°C
25/05/20 00:20 EGPB 242320Z AUTO 28008KT 6000 OVC028/// 09/09 Q1026 W (280°) 9.2mph 9°C 9°C
24/05/20 23:50 EGPB 242250Z AUTO 28009KT 5000 BR FEW003/// BKN018/// OVC030/// 09/09 Q1025 BR W (280°) 10.4mph 9°C 9°C
24/05/20 23:20 EGPB 242220Z AUTO 28008KT 3300 BR OVC002/// 09/09 Q1025 BR W (280°) 9.2mph 9°C 9°C
24/05/20 22:50 EGPB 242150Z AUTO 26006KT 0500 FG OVC002/// 09/08 Q1025 FG W (260°) 6.9mph 9°C 8°C
24/05/20 21:50 EGPB 242050Z AUTO 25005KT 9999 OVC011/// 09/08 Q1024 WSW (250°) 5.8mph 9°C 8°C
24/05/20 21:20 EGPB 242020Z AUTO 25008KT 9999 SCT016/// OVC027/// 09/08 Q1024 WSW (250°) 9.2mph 9°C 8°C
24/05/20 20:50 EGPB 241950Z AUTO 27007KT 9999 FEW033/// 09/07 Q1024 W (270°) 8.1mph 9°C 7°C
24/05/20 20:20 EGPB 241920Z AUTO 29012KT 9999 FEW017/// 09/06 Q1023 WNW (290°) 13.8mph 9°C 6°C
24/05/20 19:50 EGPB 241850Z AUTO 29010KT 9999 BKN014/// 10/07 Q1023 WNW (290°) 11.5mph 10°C 7°C
24/05/20 19:20 EGPB 241820Z AUTO 29009KT 9999 OVC014/// 10/06 Q1023 WNW (290°) 10.4mph 10°C 6°C
24/05/20 18:50 EGPB 241750Z AUTO 29010KT 9999 OVC013/// 10/07 Q1022 WNW (290°) 11.5mph 10°C 7°C
24/05/20 17:50 EGPB 241650Z AUTO 29010KT 9999 OVC010/// 10/07 Q1021 WNW (290°) 11.5mph 10°C 7°C
24/05/20 17:20 EGPB 241620Z AUTO 29012KT 9999 OVC010/// 10/07 Q1021 WNW (290°) 13.8mph 10°C 7°C
24/05/20 16:50 EGPB 241550Z AUTO 29013KT 9999 BKN008/// OVC016/// 09/07 Q1021 WNW (290°) 15.0mph 9°C 7°C
24/05/20 16:20 EGPB 241520Z 29014KT 9999 FEW008 SCT011 BKN017 10/08 Q1020 WNW (290°) 16.1mph 10°C 8°C
24/05/20 15:50 EGPB 241450Z 30015KT 9999 FEW008 BKN012 09/08 Q1020 WNW (300°) 17.3mph 9°C 8°C
24/05/20 15:20 EGPB 241420Z 30016KT 9999 FEW008 BKN013 09/08 Q1019 WNW (300°) 18.4mph 9°C 8°C
24/05/20 14:50 EGPB 241350Z 30017KT 9999 -RA FEW008 BKN015 10/08 Q1018 TEMPO BKN008 -RA WNW (300°) 19.6mph 10°C 8°C
24/05/20 14:20 EGPB 241320Z 30018KT 9999 FEW010 BKN013 10/08 Q1018 TEMPO BKN009 WNW (300°) 20.7mph 10°C 8°C
24/05/20 13:50 EGPB 241250Z 30019KT 9999 BKN011 10/08 Q1017 TEMPO BKN009 WNW (300°) 21.9mph 10°C 8°C
24/05/20 13:20 EGPB 241220Z 30020KT 9000 FEW010 BKN014 10/08 Q1016 WNW (300°) 23.0mph 10°C 8°C
24/05/20 12:50 EGPB 241150Z 30021KT 9999 FEW009 BKN014 10/08 Q1015 WNW (300°) 24.2mph 10°C 8°C
24/05/20 12:20 EGPB 241120Z AUTO 30020KT 8000 OVC008/// 09/08 Q1014 WNW (300°) 23.0mph 9°C 8°C
24/05/20 11:50 EGPB 241050Z AUTO 30021KT 9000 OVC008/// 10/08 Q1014 WNW (300°) 24.2mph 10°C 8°C
24/05/20 11:20 EGPB 241020Z AUTO 30020KT 9000 OVC008/// 10/08 Q1013 WNW (300°) 23.0mph 10°C 8°C
24/05/20 10:50 EGPB 240950Z AUTO 30022KT 8000 OVC007/// 09/08 Q1012 WNW (300°) 25.3mph 9°C 8°C
24/05/20 10:20 EGPB 240920Z AUTO 30019KT 7000 BKN006/// OVC013/// 09/08 Q1012 WNW (300°) 21.9mph 9°C 8°C
24/05/20 09:50 EGPB 240850Z AUTO 30025KT 9999 OVC007/// 09/08 Q1011 WNW (300°) 28.8mph 9°C 8°C
24/05/20 09:20 EGPB 240820Z AUTO 30027KT 9999 BKN007/// OVC017/// 09/08 Q1010 WNW (300°) 31.1mph 9°C 8°C
24/05/20 08:50 EGPB 240750Z AUTO 30028KT 9999 OVC008/// 09/08 Q1009 WNW (300°) 32.2mph 9°C 8°C
24/05/20 08:20 EGPB 240720Z AUTO 30028G38KT 7000 OVC006/// 09/08 Q1008 RERA WNW (300°) 32.2mph 43.7mph 9°C 8°C
24/05/20 07:50 EGPB 240650Z AUTO 30023KT 3500 -DZ OVC005/// 09/08 Q1008 RERA -DZ WNW (300°) 26.5mph 9°C 8°C
24/05/20 07:20 EGPB 240620Z AUTO 29021KT 3600 -DZ OVC005/// 09/08 Q1007 RERA -DZ WNW (290°) 24.2mph 9°C 8°C
24/05/20 06:50 EGPB 240550Z AUTO 30023KT 4600 RA BKN005/// OVC014/// 09/08 Q1006 REDZ RA WNW (300°) 26.5mph 9°C 8°C
24/05/20 06:20 EGPB 240520Z AUTO 30024KT 9999 BKN011/// OVC027/// 09/08 Q1005 WNW (300°) 27.6mph 9°C 8°C
24/05/20 05:50 EGPB 240450Z AUTO 29024G37KT 9999 SCT010/// OVC028/// 09/07 Q1004 WNW (290°) 27.6mph 42.6mph 9°C 7°C
24/05/20 05:20 EGPB 240420Z AUTO 30029KT 6000 -RA BKN007/// BKN018/// BKN024/// 09/08 Q1003 RERA -RA WNW (300°) 33.4mph 9°C 8°C
24/05/20 04:50 EGPB 240350Z AUTO 29030G40KT 2300 RA OVC007/// 09/08 Q1002 REDZ RA WNW (290°) 34.5mph 46.0mph 9°C 8°C
24/05/20 04:20 EGPB 240320Z AUTO 29031G42KT 9999 OVC008/// 09/08 Q1001 WNW (290°) 35.7mph 48.3mph 9°C 8°C
24/05/20 03:50 EGPB 240250Z AUTO 29033G46KT 9999 OVC006/// 09/08 Q1000 WNW (290°) 38.0mph 52.9mph 9°C 8°C
24/05/20 03:20 EGPB 240220Z AUTO 29033G53KT 6000 OVC004/// 09/08 Q0999 RERA WNW (290°) 38.0mph 61.0mph 9°C 8°C
24/05/20 02:50 EGPB 240150Z AUTO 29031G44KT 1800 RA OVC004/// 09/08 Q0997 RERA RA WNW (290°) 35.7mph 50.6mph 9°C 8°C
24/05/20 02:20 EGPB 240120Z AUTO 28030KT 2100 RA OVC004/// 09/08 Q0996 RERA RA W (280°) 34.5mph 9°C 8°C
24/05/20 01:50 EGPB 240050Z AUTO 27034KT 1600 RA OVC004/// 09/08 Q0996 RERA RA W (270°) 39.1mph 9°C 8°C
24/05/20 01:20 EGPB 240020Z AUTO 27033G43KT 4000 -RA OVC006/// 09/08 Q0996 RERA -RA W (270°) 38.0mph 49.5mph 9°C 8°C
24/05/20 00:50 EGPB 232350Z AUTO 27031KT 4300 -DZ OVC005/// 09/08 Q0996 -DZ W (270°) 35.7mph 9°C 8°C
24/05/20 00:20 EGPB 232320Z AUTO 27030KT 3900 -RA OVC004/// 09/08 Q0996 RERA -RA W (270°) 34.5mph 9°C 8°C
23/05/20 23:50 EGPB 232250Z AUTO 26027KT 3700 RA OVC004/// 09/08 Q0995 RA W (260°) 31.1mph 9°C 8°C
23/05/20 23:20 EGPB 232220Z AUTO 26023KT 3500 RA OVC005/// 09/08 Q0995 RERA RA W (260°) 26.5mph 9°C 8°C
23/05/20 22:50 EGPB 232150Z AUTO 26023KT 5000 -RA OVC004/// 09/09 Q0995 RERA -RA W (260°) 26.5mph 9°C 9°C
23/05/20 22:20 EGPB 232120Z AUTO 25021KT 6000 -RA OVC003/// 09/09 Q0994 RERA -RA WSW (250°) 24.2mph 9°C 9°C
23/05/20 21:50 EGPB 232050Z AUTO 23019KT 2700 +RA OVC005/// 09/08 Q0994 REDZ +RA SW (230°) 21.9mph 9°C 8°C
23/05/20 21:20 EGPB 232020Z AUTO 22019KT 5000 -DZ BKN006/// OVC018/// 09/08 Q0995 -DZ SW (220°) 21.9mph 9°C 8°C
23/05/20 20:50 EGPB 231950Z AUTO 23021KT 7000 BKN011/// OVC021/// 09/08 Q0995 SW (230°) 24.2mph 9°C 8°C
23/05/20 20:20 EGPB 231920Z AUTO 24023KT 9999 BKN009/// OVC020/// 09/08 Q0995 WSW (240°) 26.5mph 9°C 8°C
23/05/20 19:50 EGPB 231850Z AUTO 23021KT 6000 BKN009/// OVC024/// 09/08 Q0995 SW (230°) 24.2mph 9°C 8°C
23/05/20 19:20 EGPB 231820Z AUTO 24019KT 7000 BKN007/// OVC018/// 09/08 Q0995 RERA WSW (240°) 21.9mph 9°C 8°C
23/05/20 18:20 EGPB 231720Z AUTO 24019KT 9000 BKN012/// OVC039/// 10/08 Q0995 TEMPO SCT012 WSW (240°) 21.9mph 10°C 8°C
23/05/20 17:50 EGPB 231650Z AUTO 23018KT 9999 BKN013/// OVC041/// 10/08 Q0995 TEMPO SCT013 SW (230°) 20.7mph 10°C 8°C
23/05/20 17:20 EGPB 231620Z AUTO 23017KT 8000 SCT027/// BKN042/// 10/09 Q0995 TEMPO SHRA SW (230°) 19.6mph 10°C 9°C
23/05/20 16:50 EGPB 231550Z AUTO 24017KT 9000 FEW038/// 10/08 Q0995 NOSIG WSW (240°) 19.6mph 10°C 8°C
23/05/20 16:20 EGPB 231520Z AUTO 24018KT 9999 FEW019/// BKN039/// 10/08 Q0994 TEMPO SHRA WSW (240°) 20.7mph 10°C 8°C
23/05/20 15:50 EGPB 231450Z 23018KT 9999 -RA FEW010 BKN040 10/09 Q0994 TEMPO SHRA -RA SW (230°) 20.7mph 10°C 9°C